Time;durP1;ratioP1;P1;durP2;ratioP2;P2;SDS_P1;SDS_P2;PMS_P1;PMS_P2;Temp;Humidity;BMP_temperature;BMP_pressure;BME280_temperature;BME280_humidity;BME280_pressure;Samples;Min_cycle;Max_cycle;Signal;HPM_P1;HPM_P2
2022/12/16 00:01:09;;;;;;;62.25;19.92;;;;;;;2.63;100.00;101351.02;1632198;87;21114;-83
2022/12/16 00:03:37;;;;;;;62.65;20.97;;;;;;;2.63;100.00;101353.67;1627114;87;21027;-83
2022/12/16 00:06:06;;;;;;;61.25;20.27;;;;;;;2.61;100.00;101353.03;1607523;87;21896;-83
2022/12/16 00:08:35;;;;;;;65.62;20.23;;;;;;;2.61;100.00;101352.21;1630121;87;21413;-83
2022/12/16 00:11:02;;;;;;;70.00;21.52;;;;;;;2.58;100.00;101350.75;1629418;88;21071;-83
2022/12/16 00:13:30;;;;;;;57.75;20.10;;;;;;;2.60;100.00;101356.72;1632265;87;21081;-83
2022/12/16 00:15:56;;;;;;;71.60;21.20;;;;;;;2.55;100.00;101359.11;1627080;87;21523;-84
2022/12/16 00:18:23;;;;;;;69.35;21.90;;;;;;;2.58;100.00;101362.72;1628378;87;21113;-83
2022/12/16 00:20:52;;;;;;;84.30;26.82;;;;;;;2.59;100.00;101364.88;1627669;87;21031;-83
2022/12/16 00:23:18;;;;;;;154.55;44.18;;;;;;;2.57;100.00;101359.75;1628517;86;21136;-84
2022/12/16 00:25:46;;;;;;;146.13;44.05;;;;;;;2.54;100.00;101356.14;1628743;87;21051;-83
2022/12/16 00:28:15;;;;;;;209.95;61.83;;;;;;;2.56;100.00;101363.91;1629918;87;21034;-83
2022/12/16 00:30:42;;;;;;;162.85;49.35;;;;;;;2.57;100.00;101364.25;1633145;87;21079;-83
2022/12/16 00:33:08;;;;;;;83.70;25.75;;;;;;;2.57;100.00;101368.25;1629440;87;21057;-83
2022/12/16 00:35:34;;;;;;;65.45;22.13;;;;;;;2.58;100.00;101369.37;1631945;87;21023;-84
2022/12/16 00:38:00;;;;;;;68.85;20.77;;;;;;;2.59;100.00;101367.53;1630015;87;20920;-82
2022/12/16 00:40:27;;;;;;;69.00;22.60;;;;;;;2.59;100.00;101355.08;1632867;86;21079;-83
2022/12/16 00:42:53;;;;;;;66.10;22.22;;;;;;;2.57;100.00;101355.77;1631891;87;21433;-83
2022/12/16 00:45:19;;;;;;;68.22;21.93;;;;;;;2.55;100.00;101359.11;1656018;85;21580;-83
2022/12/16 00:47:48;;;;;;;65.70;21.45;;;;;;;2.55;100.00;101366.27;1668165;84;21267;-83
2022/12/16 00:50:14;;;;;;;64.32;22.73;;;;;;;2.54;100.00;101373.44;1699722;80;21047;-84
2022/12/16 00:52:40;;;;;;;66.05;21.52;;;;;;;2.53;100.00;101372.27;1768146;80;21031;-83
2022/12/16 00:55:07;;;;;;;64.05;21.17;;;;;;;2.59;100.00;101368.86;1750379;80;21040;-84
2022/12/16 00:57:33;;;;;;;63.95;21.12;;;;;;;2.56;100.00;101366.58;1764312;80;21033;-84
2022/12/16 00:59:59;;;;;;;59.13;20.30;;;;;;;2.57;100.00;101362.92;1769283;80;21402;-83
2022/12/16 01:02:26;;;;;;;65.65;21.40;;;;;;;2.55;100.00;101355.63;1771190;80;21109;-83
2022/12/16 01:04:53;;;;;;;59.95;21.52;;;;;;;2.52;100.00;101347.52;1749293;80;20988;-83
2022/12/16 01:07:19;;;;;;;62.70;20.68;;;;;;;2.45;100.00;101346.12;1716174;83;21284;-84
2022/12/16 01:09:45;;;;;;;59.20;20.12;;;;;;;2.42;100.00;101349.66;1716251;83;20923;-84
2022/12/16 01:12:11;;;;;;;62.90;20.48;;;;;;;2.38;100.00;101340.39;1716282;83;21517;-84
2022/12/16 01:14:37;;;;;;;62.30;20.32;;;;;;;2.38;100.00;101341.72;1716468;83;21728;-84
2022/12/16 01:17:03;;;;;;;64.58;20.62;;;;;;;2.33;100.00;101337.49;1716300;83;20900;-84
2022/12/16 01:19:29;;;;;;;61.35;19.70;;;;;;;2.28;100.00;101334.05;1716221;83;21228;-84
2022/12/16 01:21:55;;;;;;;63.15;20.40;;;;;;;2.22;100.00;101329.48;1716152;83;21122;-84
2022/12/16 01:24:22;;;;;;;57.90;20.17;;;;;;;2.21;100.00;101333.16;1716221;83;21089;-84
2022/12/16 01:26:48;;;;;;;60.80;20.15;;;;;;;2.18;100.00;101327.70;1716445;82;21082;-84
2022/12/16 01:29:14;;;;;;;69.10;22.98;;;;;;;2.14;100.00;101321.09;1716410;83;21025;-84
2022/12/16 01:31:40;;;;;;;70.83;22.27;;;;;;;2.10;100.00;101323.00;1716323;83;21084;-84
2022/12/16 01:37:47;;;;;;;64.00;19.40;;;;;;;1.92;100.00;101301.62;1716076;82;21058;-85
2022/12/16 01:40:20;;;;;;;64.72;21.10;;;;;;;1.78;100.00;101301.94;1716236;83;21038;-85
2022/12/16 01:42:46;;;;;;;58.73;19.57;;;;;;;1.73;100.00;101300.33;1716331;83;21246;-85
2022/12/16 01:45:32;;;;;;;59.30;18.80;;;;;;;1.66;100.00;101312.71;1716491;83;21912;-85
2022/12/16 01:48:09;;;;;;;63.48;20.27;;;;;;;1.62;100.00;101324.72;1716254;83;21026;-85
2022/12/16 01:50:36;;;;;;;70.25;20.57;;;;;;;1.58;100.00;101322.91;1709520;83;21011;-85
2022/12/16 01:53:05;;;;;;;67.92;20.48;;;;;;;1.52;100.00;101314.34;1716510;83;21602;-86
2022/12/16 01:55:41;;;;;;;60.12;20.05;;;;;;;1.48;100.00;101313.08;1716275;82;20951;-85
2022/12/16 01:58:21;;;;;;;63.80;20.40;;;;;;;1.46;100.00;101313.75;1714855;82;21211;-86
2022/12/16 02:00:47;;;;;;;69.20;20.30;;;;;;;1.41;100.00;101309.48;1732349;81;21024;-85
2022/12/16 02:06:42;;;;;;;63.92;20.72;;;;;;;1.35;100.00;101306.22;1717950;83;21024;-85
2022/12/16 02:09:11;;;;;;;68.75;21.35;;;;;;;1.28;100.00;101313.28;1717751;83;20946;-85
2022/12/16 02:11:54;;;;;;;61.02;19.92;;;;;;;1.25;100.00;101319.77;1699729;82;21478;-85
2022/12/16 02:14:24;;;;;;;;;;;;;;;1.26;100.00;101341.31;1705386;83;21467;-85
2022/12/16 02:17:10;;;;;;;82.00;24.25;;;;;;;1.24;100.00;101354.48;1700881;83;20189;-86
2022/12/16 02:20:05;;;;;;;69.15;22.62;;;;;;;1.24;100.00;101369.90;1701226;83;21034;-86
2022/12/16 02:23:02;;;;;;;65.70;21.52;;;;;;;1.25;100.00;101375.52;1695390;83;21109;-86
2022/12/16 02:26:13;;;;;;;74.40;23.55;;;;;;;1.28;100.00;101375.16;1702754;83;21418;-86
2022/12/16 02:29:33;;;;;;;64.75;20.60;;;;;;;1.28;100.00;101367.70;1702939;83;21503;-86
2022/12/16 02:32:16;;;;;;;62.15;20.68;;;;;;;1.28;100.00;101371.69;1701825;83;21030;-85
2022/12/16 02:35:24;;;;;;;66.77;22.20;;;;;;;1.26;100.00;101367.87;1704238;83;21069;-86
2022/12/16 02:38:22;;;;;;;65.70;22.27;;;;;;;1.27;100.00;101369.54;1699171;83;21582;-86
2022/12/16 02:41:02;;;;;;;70.92;22.70;;;;;;;1.21;100.00;101361.47;1707442;83;21414;-86
2022/12/16 02:43:48;;;;;;;67.55;21.68;;;;;;;1.09;100.00;101358.42;1704608;83;21125;-87
2022/12/16 02:46:16;;;;;;;71.25;22.82;;;;;;;1.01;100.00;101351.34;1710310;83;21120;-87
2022/12/16 02:48:42;;;;;;;74.12;22.90;;;;;;;0.96;100.00;101343.58;1674989;84;21209;-87
2022/12/16 02:51:08;;;;;;;71.60;23.10;;;;;;;0.92;100.00;101340.47;1708295;84;21692;-87
2022/12/16 02:53:37;;;;;;;68.25;22.42;;;;;;;0.84;100.00;101333.89;1708136;83;21294;-87
2022/12/16 02:56:21;;;;;;;74.70;22.25;;;;;;;0.81;100.00;101331.08;1718427;80;21010;-88
2022/12/16 02:58:56;;;;;;;;;;;;;;;0.76;100.00;101329.45;1778544;80;21034;-87
2022/12/16 03:01:55;;;;;;;66.57;19.80;;;;;;;0.70;100.00;101331.48;1751068;82;20270;-88
2022/12/16 03:04:44;;;;;;;69.22;20.82;;;;;;;0.65;100.00;101349.78;1735713;81;21044;-87
2022/12/16 03:07:14;;;;;;;69.97;21.42;;;;;;;0.63;100.00;101362.38;1670949;84;21316;-87
2022/12/16 03:09:43;;;;;;;70.45;22.37;;;;;;;0.64;100.00;101374.12;1680646;84;21496;-88
2022/12/16 03:12:13;;;;;;;71.42;22.48;;;;;;;0.66;100.00;101387.23;1665794;85;21134;-87
2022/12/16 03:14:44;;;;;;;63.90;20.88;;;;;;;0.67;100.00;101396.83;1669357;85;21145;-87
2022/12/16 03:17:13;;;;;;;62.45;20.00;;;;;;;0.64;100.00;101399.33;1679096;84;21019;-87
2022/12/16 03:22:47;;;;;;;56.98;19.87;;;;;;;0.61;100.00;101412.11;1662151;84;21019;-87
2022/12/16 03:25:15;;;;;;;63.25;19.35;;;;;;;0.57;100.00;101426.73;1666786;84;21124;-88
2022/12/16 03:27:58;;;;;;;57.55;19.25;;;;;;;0.53;100.00;101434.22;1673320;85;21090;-87
2022/12/16 03:30:38;;;;;;;60.33;18.52;;;;;;;0.53;100.00;101440.84;1669358;84;21109;-87
2022/12/16 03:33:18;;;;;;;60.73;18.17;;;;;;;0.56;100.00;101448.45;1615658;88;22480;-88
2022/12/16 03:35:53;;;;;;;64.55;19.80;;;;;;;0.60;100.00;101444.95;1552566;91;21065;-87
2022/12/16 03:38:20;;;;;;;71.25;20.97;;;;;;;0.63;100.00;101445.42;1558199;91;21234;-86
2022/12/16 03:40:47;;;;;;;69.32;20.72;;;;;;;0.65;100.00;101438.13;1565911;90;21070;-87
2022/12/16 03:43:15;;;;;;;65.52;21.07;;;;;;;0.68;100.00;101429.82;1579593;89;21089;-87
2022/12/16 03:48:14;;;;;;;76.45;21.70;;;;;;;0.72;100.00;101425.49;1551542;92;21068;-86
2022/12/16 03:50:40;;;;;;;77.58;24.10;;;;;;;0.75;100.00;101418.00;1551665;91;21619;-86
2022/12/16 03:53:07;;;;;;;77.00;25.08;;;;;;;0.73;100.00;101425.81;1533057;92;21510;-87
2022/12/16 03:55:33;;;;;;;80.17;23.40;;;;;;;0.72;100.00;101444.06;1525651;92;21233;-87
2022/12/16 03:57:59;;;;;;;71.80;22.82;;;;;;;0.74;100.00;101456.16;1567736;90;21391;-87
2022/12/16 04:02:53;;;;;;;73.83;21.62;;;;;;;0.90;100.00;101476.45;1535712;91;21526;-86
2022/12/16 04:05:19;;;;;;;69.47;22.55;;;;;;;0.98;100.00;101484.88;1535590;92;21371;-86
2022/12/16 04:07:45;;;;;;;80.85;25.35;;;;;;;1.04;100.00;101476.22;1534634;91;21108;-86
2022/12/16 04:10:12;;;;;;;85.57;25.95;;;;;;;1.08;100.00;101465.06;1535371;91;21443;-86
2022/12/16 04:29:23;;;;;;;97.80;29.12;;;;;;;1.20;100.00;101475.28;1506563;93;21097;-86
2022/12/16 04:31:50;;;;;;;87.82;27.75;;;;;;;1.23;100.00;101464.31;1507011;93;21601;-85
2022/12/16 04:34:25;;;;;;;86.85;27.15;;;;;;;1.24;100.00;101463.33;1493897;93;21151;-86
